Terminal Aerodrome Forecast
Issued by NWS

Home | Current Version | Previous Version | Text Only | Print | Product List | Glossary On
Versions: 1 2 3 4 5 6 7 8 9 10 11 12 13
651
FTUS45 KRIW 210540
TAFLND
TAF
KLND 210540Z 2106/2206 VRB06KT P6SM SCT080 BKN200
     FM211800 12006KT P6SM SCT100
     FM220300 25007KT P6SM SCT100 BKN150 WS020/27035KT=

USA.gov is the U.S. government's official web portal to all federal, state and local government web resources and services.